Latest Coastal Weather Observations for Arlington Reef

IDQ60701

Issued at 4:42 pm EST Friday 30 September 2016 (issued every 10 minutes, with the page automatically refreshed every 10 minutes)

About coastal observations | Map of coastal stations | Coastal observations for QLD | Marine services | Other Formats
Station Details ID: 200879 Name: ARLINGTON REEF Lat: -16.72 Lon: 146.11 Height: 0.0 m
Data from the previous 72 hours. | See also: Recent months at Arlington Reef
Date/Time
EST
Temp
°C
Wind Pressure Rain since
9am
mm
Weather Cloud Vis
km
Sea
Height
m
Swell
Dir  Spd
kts
Gust
kts
hPa Trend Height
m
Period
s
Dir
30/04:30pm - N 11 13 1007.8 - - - - - - - - -
30/04:00pm - N 11 13 1007.9 - - - - - - - - -
30/03:30pm - N 12 15 1007.9 - - - - - - - - -
30/03:00pm - N 13 15 1008.0 - - - - - - - - -
30/02:30pm - N 14 16 1008.1 - - - - - - - - -
30/02:00pm - N 13 15 1008.5 - - - - - - - - -
30/01:30pm - N 15 17 1008.5 - - - - - - - - -
30/01:00pm - N 14 17 1009.0 - - - - - - - - -
30/12:30pm - N 13 15 1009.8 - - - - - - - - -
30/12:00pm - N 12 15 1010.2 - - - - - - - - -
30/11:30am - N 13 14 1010.5 - - - - - - - - -
30/11:00am - N 12 14 1010.9 - - - - - - - - -
30/10:30am - NNW 11 13 1011.1 - - - - - - - - -
30/10:00am - NNW 12 13 1011.3 - - - - - - - - -
30/09:30am - NNW 12 14 1011.3 - - - - - - - - -
30/09:00am - NNW 11 13 1011.3 - - - - - - - - -
30/08:30am - NNW 12 13 1011.2 - - - - - - - - -
30/08:00am - NNW 11 13 1011.2 - - - - - - - - -
30/07:30am - NNW 11 13 1010.8 - - - - - - - - -
30/07:00am - NNW 12 14 1010.3 - - - - - - - - -
30/06:30am - N 12 14 1010.0 - - - - - - - - -
30/06:00am - NNW 12 14 1009.9 - - - - - - - - -
30/05:30am - NNW 11 13 1009.6 - - - - - - - - -
30/05:00am - N 12 13 1009.3 - - - - - - - - -
30/04:30am - N 12 13 1009.0 - - - - - - - - -
30/04:00am - N 10 11 1009.2 - - - - - - - - -
30/03:30am - N 7 8 1009.4 - - - - - - - - -
30/03:00am - NNW 6 7 1009.7 - - - - - - - - -
30/02:30am - NNW 9 11 1010.1 - - - - - - - - -
30/02:00am - N 11 13 1009.8 - - - - - - - - -
30/01:30am - N 12 14 1009.8 - - - - - - - - -
30/01:00am - N 13 14 1010.0 - - - - - - - - -
30/12:30am - NNW 11 13 1010.5 - - - - - - - - -
30/12:00am - N 12 14 1010.6 - - - - - - - - -
 
Date/Time
EST
Temp
°C
Wind Pressure Rain since
9am
mm
Weather Cloud Vis
km
Sea
Height
m
Swell
Dir  Spd
kts
Gust
kts
hPa Trend Height
m
Period
s
Dir
29/11:30pm - N 12 15 1010.7 - - - - - - - - -
29/11:00pm - N 11 13 1011.0 - - - - - - - - -
29/10:30pm - N 13 15 1010.8 - - - - - - - - -
29/10:00pm - N 12 15 1010.8 - - - - - - - - -
29/09:30pm - N 12 14 1010.9 - - - - - - - - -
29/09:00pm - N 11 13 1010.6 - - - - - - - - -
29/08:30pm - N 11 14 1010.0 - - - - - - - - -
29/08:00pm - N 12 15 1009.5 - - - - - - - - -
29/07:30pm - N 11 13 1009.1 - - - - - - - - -
29/07:00pm - N 12 15 1008.8 - - - - - - - - -
29/06:30pm - N 14 17 1008.2 - - - - - - - - -
29/06:00pm - N 14 17 1007.7 - - - - - - - - -
29/05:30pm - N 13 16 1007.8 - - - - - - - - -
29/05:00pm - N 14 17 1007.5 - - - - - - - - -
29/04:30pm - NNE 16 18 1007.2 - - - - - - - - -
29/04:00pm - NNE 15 17 1007.1 - - - - - - - - -
29/03:30pm - NNE 14 16 1007.3 - - - - - - - - -
29/03:00pm - NNE 14 16 1007.3 - - - - - - - - -
29/02:30pm - NNE 14 16 1007.7 - - - - - - - - -
29/02:00pm - NNE 12 15 1008.1 - - - - - - - - -
29/01:30pm - NNE 10 13 1009.0 - - - - - - - - -
29/01:00pm - N 10 13 1009.4 - - - - - - - - -
29/12:30pm - N 8 10 1010.3 - - - - - - - - -
29/12:00pm - N 7 9 1010.7 - - - - - - - - -
29/11:30am - N 9 11 1011.2 - - - - - - - - -
29/11:00am - N 10 12 1011.3 - - - - - - - - -
29/10:30am - NNE 11 13 1011.4 - - - - - - - - -
29/10:00am - NNE 11 13 1011.5 - - - - - - - - -
29/09:30am - NNE 13 15 1011.4 - - - - - - - - -
29/09:00am - N 9 11 1012.0 - - - - - - - - -
29/08:30am - NNE 7 8 1012.2 - - - - - - - - -
29/08:00am - NNE 8 9 1011.9 - - - - - - - - -
29/07:30am - NNE 8 10 1011.6 - - - - - - - - -
29/07:00am - NNE 9 11 1011.1 - - - - - - - - -
29/06:30am - NNE 9 11 1010.7 - - - - - - - - -
29/06:00am - NNE 6 8 1010.7 - - - - - - - - -
29/05:30am - NNE 6 7 1010.6 - - - - - - - - -
29/05:00am - NNE 7 8 1010.2 - - - - - - - - -
29/04:30am - NNE 6 8 1010.1 - - - - - - - - -
29/04:00am - NNE 9 11 1009.9 - - - - - - - - -
29/03:30am - NNE 11 13 1009.6 - - - - - - - - -
29/03:00am - NE 10 11 1010.0 - - - - - - - - -
29/02:30am - NE 9 11 1010.3 - - - - - - - - -
29/02:00am - NE 9 11 1010.8 - - - - - - - - -
29/01:30am - NNE 9 11 1011.2 - - - - - - - - -
29/01:00am - NNE 11 14 1011.4 - - - - - - - - -
29/12:30am - NE 11 12 1011.9 - - - - - - - - -
29/12:00am - NE 10 11 1012.3 - - - - - - - - -
 
Date/Time
EST
Temp
°C
Wind Pressure Rain since
9am
mm
Weather Cloud Vis
km
Sea
Height
m
Swell
Dir  Spd
kts
Gust
kts
hPa Trend Height
m
Period
s
Dir
28/11:30pm - NE 9 11 1012.5 - - - - - - - - -
28/11:00pm - NE 8 10 1012.7 - - - - - - - - -
28/10:30pm - NE 9 11 1012.9 - - - - - - - - -
28/10:00pm - NE 9 11 1012.5 - - - - - - - - -
28/09:30pm - ENE 9 11 1012.2 - - - - - - - - -
28/09:00pm - ENE 9 11 1011.8 - - - - - - - - -
28/08:30pm - ENE 9 12 1011.7 - - - - - - - - -
28/08:00pm - ENE 9 11 1011.5 - - - - - - - - -
28/07:30pm - ENE 9 11 1011.2 - - - - - - - - -
28/07:00pm - E 9 10 1011.0 - - - - - - - - -
28/06:30pm - E 10 11 1010.8 - - - - - - - - -
28/06:00pm - E 8 10 1010.8 - - - - - - - - -
28/05:30pm - E 9 10 1010.7 - - - - - - - - -
28/05:00pm - E 8 10 1010.4 - - - - - - - - -
28/04:30pm - E 7 9 1010.3 - - - - - - - - -
28/04:00pm - ESE 7 9 1010.2 - - - - - - - - -
28/03:30pm - E 7 9 1010.2 - - - - - - - - -
28/03:00pm - E 7 9 1010.4 - - - - - - - - -
28/02:30pm - E 8 9 1010.6 - - - - - - - - -
28/02:00pm - E 5 7 1010.9 - - - - - - - - -
28/01:30pm - E 6 7 1011.3 - - - - - - - - -
28/01:00pm - E 6 7 1011.6 - - - - - - - - -
28/12:30pm - E 6 8 1012.2 - - - - - - - - -
28/12:00pm - E 6 7 1012.8 - - - - - - - - -
28/11:30am - ESE 6 8 1013.3 - - - - - - - - -
28/11:00am - E 6 7 1013.8 - - - - - - - - -
28/10:30am - E 5 7 1014.1 - - - - - - - - -
28/10:00am - E 5 7 1014.3 - - - - - - - - -
28/09:30am - SE 3 5 1014.3 - - - - - - - - -
28/09:00am - ESE 4 5 1014.1 - - - - - - - - -
28/08:30am - E 4 5 1013.8 - - - - - - - - -
28/08:00am - E 4 5 1013.5 - - - - - - - - -
28/07:30am - ESE 4 6 1013.3 - - - - - - - - -
28/07:00am - SE 5 6 1012.9 - - - - - - - - -
28/06:30am - ESE 6 7 1012.5 - - - - - - - - -
28/06:00am - ESE 5 6 1012.3 - - - - - - - - -
28/05:30am - E 5 6 1012.0 - - - - - - - - -
28/05:00am - E 7 8 1011.7 - - - - - - - - -
28/04:30am - E 6 8 1011.5 - - - - - - - - -
28/04:00am - E 7 9 1011.5 - - - - - - - - -
28/03:30am - E 9 10 1011.4 - - - - - - - - -
28/03:00am - E 8 10 1011.4 - - - - - - - - -
28/02:30am - E 7 9 1011.7 - - - - - - - - -
28/02:00am - ESE 8 9 1011.8 - - - - - - - - -
28/01:30am - E 8 9 1012.1 - - - - - - - - -
28/01:00am - E 8 9 1012.5 - - - - - - - - -
28/12:30am - E 8 9 1012.8 - - - - - - - - -
28/12:00am - E 8 10 1013.1 - - - - - - - - -
 
Date/Time
EST
Temp
°C
Wind Pressure Rain since
9am
mm
Weather Cloud Vis
km
Sea
Height
m
Swell
Dir  Spd
kts
Gust
kts
hPa Trend Height
m
Period
s
Dir
27/11:30pm - ESE 7 9 1013.3 - - - - - - - - -
27/11:00pm - ESE 8 9 1013.4 - - - - - - - - -
27/10:30pm - ESE 9 10 1013.4 - - - - - - - - -
27/10:00pm - ESE 9 11 1013.3 - - - - - - - - -
27/09:30pm - ESE 9 11 1013.2 - - - - - - - - -
27/09:00pm - SE 11 12 1012.9 - - - - - - - - -
27/08:30pm - SE 10 12 1012.7 - - - - - - - - -
27/08:00pm - ESE 12 14 1012.3 - - - - - - - - -
27/07:30pm - ESE 12 14 1012.0 - - - - - - - - -
27/07:00pm - ESE 11 13 1011.8 - - - - - - - - -
27/06:30pm - ESE 13 14 1011.2 - - - - - - - - -
27/06:00pm - ESE 12 15 1010.9 - - - - - - - - -
27/05:30pm - ESE 12 14 1010.8 - - - - - - - - -
27/05:00pm - ESE 12 14 1010.7 - - - - - - - - -

Other Formats:

Comma delimited format used in spreadsheet applications
http://www.bom.gov.au/fwo/IDQ60701/IDQ60701.94284.axf

JavaScript Object Notation format (JSON) in row-major order
http://www.bom.gov.au/fwo/IDQ60701/IDQ60701.94284.json